Time;durP1;ratioP1;P1;durP2;ratioP2;P2;SDS_P1;SDS_P2;PMS_P1;PMS_P2;Temp;Humidity;BMP_temperature;BMP_pressure;BME280_temperature;BME280_humidity;BME280_pressure;Samples;Min_cycle;Max_cycle;Signal;HPM_P1;HPM_P2
2021/04/16 00:01:53;;;;;;;3.85;2.78;;;5.00;1.00;;;;;;5061559;28;20233;-80
2021/04/16 00:04:23;;;;;;;3.47;3.17;;;5.00;1.00;;;;;;5078965;28;20225;-81
2021/04/16 00:06:49;;;;;;;5.03;3.03;;;5.00;1.00;;;;;;5061677;28;21095;-79
2021/04/16 00:09:19;;;;;;;4.60;2.45;;;5.00;1.00;;;;;;5050459;28;20225;-77
2021/04/16 00:11:47;;;;;;;7.18;2.80;;;5.10;1.00;;;;;;5055391;28;20325;-77
2021/04/16 00:14:25;;;;;;;5.07;3.17;;;5.10;1.00;;;;;;5066011;28;20230;-82
2021/04/16 00:16:52;;;;;;;4.53;2.70;;;5.10;1.00;;;;;;5054592;28;20221;-77
2021/04/16 00:19:19;;;;;;;4.07;2.65;;;5.10;1.00;;;;;;5049011;28;20485;-78
2021/04/16 00:21:46;;;;;;;3.38;2.30;;;5.10;1.00;;;;;;5042998;28;20233;-79
2021/04/16 00:24:14;;;;;;;3.47;2.47;;;5.10;1.00;;;;;;5066304;28;20231;-77
2021/04/16 00:26:43;;;;;;;4.03;2.75;;;5.10;1.00;;;;;;5066904;28;20233;-77
2021/04/16 00:29:10;;;;;;;3.78;2.22;;;5.10;1.00;;;;;;5072882;28;20233;-78
2021/04/16 00:31:50;;;;;;;4.20;2.40;;;5.10;1.00;;;;;;5042240;28;20229;-78
2021/04/16 00:34:16;;;;;;;7.05;2.35;;;5.10;1.00;;;;;;5054670;28;20232;-80
2021/04/16 00:36:43;;;;;;;5.28;2.72;;;5.10;1.00;;;;;;5053938;28;20225;-78
2021/04/16 00:39:09;;;;;;;3.05;2.60;;;5.10;1.00;;;;;;5059406;28;20273;-79
2021/04/16 00:41:36;;;;;;;7.88;3.88;;;5.10;1.00;;;;;;5061771;28;20271;-79
2021/04/16 00:44:04;;;;;;;4.68;2.42;;;5.20;1.00;;;;;;5046584;28;20221;-79
2021/04/16 00:46:38;;;;;;;3.97;2.45;;;5.10;1.00;;;;;;5068568;28;20233;-79
2021/04/16 00:49:07;;;;;;;3.92;2.03;;;5.20;1.00;;;;;;5053614;28;20232;-80
2021/04/16 00:51:41;;;;;;;5.30;2.95;;;5.20;1.00;;;;;;5055675;28;20293;-78
2021/04/16 00:54:12;;;;;;;2.85;2.28;;;5.20;1.00;;;;;;5078989;28;20229;-80
2021/04/16 00:56:39;;;;;;;4.80;2.08;;;5.10;1.00;;;;;;5075318;28;20245;-78
2021/04/16 00:59:07;;;;;;;2.17;2.00;;;5.10;1.00;;;;;;5091605;28;20240;-78
2021/04/16 01:01:34;;;;;;;3.75;1.83;;;5.20;1.00;;;;;;5075626;28;20209;-78
2021/04/16 01:04:01;;;;;;;4.47;2.10;;;5.20;1.00;;;;;;5076896;28;20337;-81
2021/04/16 01:06:31;;;;;;;4.68;2.67;;;5.20;1.00;;;;;;5076159;28;20229;-78
2021/04/16 01:09:00;;;;;;;5.13;1.75;;;5.20;1.00;;;;;;5066779;28;20224;-76
2021/04/16 01:11:28;;;;;;;2.50;2.30;;;5.30;1.00;;;;;;5067582;28;20245;-75
2021/04/16 01:13:55;;;;;;;3.97;1.98;;;5.30;1.00;;;;;;5066986;28;20201;-78
2021/04/16 01:16:29;;;;;;;4.32;1.80;;;5.30;1.00;;;;;;5073383;28;20209;-76
2021/04/16 01:18:56;;;;;;;3.50;2.30;;;5.30;1.00;;;;;;5071700;28;20240;-80
2021/04/16 01:21:29;;;;;;;3.83;2.40;;;5.30;1.00;;;;;;5169427;22;20211;-76
2021/04/16 01:24:06;;;;;;;4.22;2.05;;;5.30;1.00;;;;;;5093263;28;20220;-83
2021/04/16 01:26:41;;;;;;;3.40;2.25;;;5.30;1.00;;;;;;5092421;28;20729;-81
2021/04/16 01:29:12;;;;;;;3.17;2.28;;;5.40;1.00;;;;;;5092560;28;20216;-78
2021/04/16 01:31:47;;;;;;;3.30;2.17;;;5.30;1.00;;;;;;5088613;28;20475;-81
2021/04/16 01:34:14;;;;;;;2.15;1.95;;;5.30;1.00;;;;;;5092243;28;20228;-82
2021/04/16 01:36:44;;;;;;;4.07;1.95;;;5.30;1.00;;;;;;5082584;28;20221;-76
2021/04/16 01:39:11;;;;;;;4.13;1.90;;;5.30;1.00;;;;;;5087654;28;20216;-76
2021/04/16 01:41:40;;;;;;;3.88;1.95;;;5.40;1.00;;;;;;5080909;28;20228;-82
2021/04/16 01:44:12;;;;;;;3.15;1.85;;;5.40;1.00;;;;;;5067577;28;20229;-81
2021/04/16 01:46:54;;;;;;;3.15;1.73;;;5.50;1.00;;;;;;5064976;28;20718;-83
2021/04/16 01:49:22;;;;;;;3.85;1.90;;;5.40;1.00;;;;;;5067861;28;20209;-80
2021/04/16 01:51:49;;;;;;;5.57;1.75;;;5.40;1.00;;;;;;5064954;28;20228;-77
2021/04/16 01:54:18;;;;;;;4.38;2.10;;;5.50;1.00;;;;;;5078030;28;20232;-83
2021/04/16 01:56:48;;;;;;;2.95;1.70;;;5.50;1.00;;;;;;5071473;28;20267;-82
2021/04/16 01:59:17;;;;;;;3.70;2.10;;;5.50;1.00;;;;;;5086382;28;21396;-78
2021/04/16 02:01:46;;;;;;;5.80;2.00;;;5.40;1.00;;;;;;5057802;28;20231;-80
2021/04/16 02:04:15;;;;;;;5.35;2.83;;;5.40;1.00;;;;;;5081131;28;20217;-82
2021/04/16 02:06:42;;;;;;;2.78;1.85;;;5.40;1.00;;;;;;5059648;28;20699;-79
2021/04/16 02:09:12;;;;;;;4.75;2.20;;;5.40;1.00;;;;;;5057935;28;20766;-81
2021/04/16 02:11:42;;;;;;;2.80;1.45;;;5.50;1.00;;;;;;5061691;28;20225;-81
2021/04/16 02:14:12;;;;;;;2.60;2.05;;;5.50;1.00;;;;;;5063521;28;20326;-81
2021/04/16 02:16:40;;;;;;;1.98;1.60;;;5.40;1.00;;;;;;5061444;28;20327;-80
2021/04/16 02:19:07;;;;;;;3.75;2.00;;;5.40;1.00;;;;;;5070868;28;20232;-80
2021/04/16 02:21:34;;;;;;;5.57;1.95;;;5.50;1.00;;;;;;5060285;28;21199;-79
2021/04/16 02:24:02;;;;;;;4.18;1.70;;;5.50;1.00;;;;;;5058194;28;20626;-77
2021/04/16 02:26:30;;;;;;;7.75;2.47;;;5.50;1.00;;;;;;5058169;28;20233;-79
2021/04/16 02:28:56;;;;;;;2.78;1.65;;;5.50;1.00;;;;;;5053385;28;20225;-79
2021/04/16 02:31:26;;;;;;;3.22;1.92;;;5.50;1.00;;;;;;5064874;28;20316;-82
2021/04/16 02:33:53;;;;;;;4.35;1.98;;;5.50;1.00;;;;;;5057224;28;20326;-80
2021/04/16 02:36:24;;;;;;;3.30;1.92;;;5.50;1.00;;;;;;5056308;28;20235;-78
2021/04/16 02:38:50;;;;;;;2.30;1.63;;;5.50;1.00;;;;;;5052287;28;20244;-77
2021/04/16 02:41:17;;;;;;;3.83;1.70;;;5.50;1.00;;;;;;5052680;28;20224;-82
2021/04/16 02:43:43;;;;;;;7.50;2.35;;;5.50;1.00;;;;;;5058595;28;20299;-81
2021/04/16 02:46:10;;;;;;;5.90;1.77;;;5.50;1.00;;;;;;5086610;28;20225;-81
2021/04/16 02:48:38;;;;;;;5.43;2.67;;;5.50;1.00;;;;;;5073312;28;20208;-77
2021/04/16 02:51:05;;;;;;;3.38;2.20;;;5.50;1.00;;;;;;5057232;28;20265;-77
2021/04/16 02:53:31;;;;;;;7.22;2.08;;;5.50;1.00;;;;;;5052844;28;20239;-78
2021/04/16 02:55:58;;;;;;;5.95;2.20;;;5.50;1.00;;;;;;5050778;28;20228;-78
2021/04/16 02:58:25;;;;;;;1.95;1.75;;;5.50;1.00;;;;;;5052434;28;24133;-78
2021/04/16 03:00:51;;;;;;;6.75;1.92;;;5.50;1.00;;;;;;5073490;28;20254;-81
2021/04/16 03:03:18;;;;;;;7.90;2.35;;;5.50;1.00;;;;;;5055476;28;20239;-81
2021/04/16 03:05:45;;;;;;;3.22;1.92;;;5.50;1.00;;;;;;5054356;28;20233;-78
2021/04/16 03:08:12;;;;;;;5.78;2.17;;;5.40;1.00;;;;;;5054163;28;20229;-82
2021/04/16 03:10:39;;;;;;;5.47;2.45;;;5.40;1.00;;;;;;5060126;28;20284;-79
2021/04/16 03:13:06;;;;;;;6.32;2.17;;;5.30;1.00;;;;;;5052705;28;20992;-81
2021/04/16 03:15:34;;;;;;;3.40;1.92;;;5.40;1.00;;;;;;5052587;28;20225;-78
2021/04/16 03:18:01;;;;;;;6.90;2.10;;;5.40;1.00;;;;;;5051869;28;20228;-80
2021/04/16 03:20:27;;;;;;;4.55;2.00;;;5.50;1.00;;;;;;5057378;28;20255;-78
2021/04/16 03:22:55;;;;;;;5.35;2.10;;;5.50;1.00;;;;;;5069657;28;20237;-78
2021/04/16 03:25:22;;;;;;;5.18;2.08;;;5.50;1.00;;;;;;5055273;28;20217;-80
2021/04/16 03:27:48;;;;;;;8.38;6.82;;;5.50;1.00;;;;;;5057088;28;20255;-78
2021/04/16 03:30:19;;;;;;;6.22;2.53;;;5.50;1.00;;;;;;5054649;28;20217;-79
2021/04/16 03:32:46;;;;;;;3.92;2.65;;;5.50;1.00;;;;;;5063450;28;20217;-76
2021/04/16 03:35:13;;;;;;;4.93;2.50;;;5.50;1.00;;;;;;5059544;28;20260;-77
2021/04/16 03:37:41;;;;;;;7.90;2.55;;;5.50;1.00;;;;;;5069229;28;20225;-81
2021/04/16 03:40:13;;;;;;;5.78;2.92;;;5.50;1.00;;;;;;5068361;28;20567;-77
2021/04/16 03:42:40;;;;;;;4.35;2.00;;;5.50;1.00;;;;;;5063325;28;21087;-76
2021/04/16 03:45:08;;;;;;;9.27;2.20;;;5.50;1.00;;;;;;5057216;28;20243;-78
2021/04/16 03:47:34;;;;;;;6.18;3.00;;;5.40;1.00;;;;;;5062010;28;20395;-80
2021/04/16 03:50:01;;;;;;;10.65;2.80;;;5.50;1.00;;;;;;5078983;28;20235;-80
2021/04/16 03:52:28;;;;;;;5.45;3.22;;;5.50;1.00;;;;;;5077522;28;20231;-77
2021/04/16 03:54:55;;;;;;;10.38;2.80;;;5.50;1.00;;;;;;5063154;28;20519;-80
2021/04/16 03:57:23;;;;;;;4.90;2.30;;;5.50;1.00;;;;;;5059666;28;20994;-80
2021/04/16 03:59:53;;;;;;;4.25;2.05;;;5.50;1.00;;;;;;5059700;28;20271;-78
2021/04/16 04:02:20;;;;;;;6.43;2.35;;;5.50;1.00;;;;;;5055362;28;20225;-81
2021/04/16 04:04:46;;;;;;;4.30;2.55;;;5.50;1.00;;;;;;5060373;28;20228;-77
2021/04/16 04:07:16;;;;;;;6.20;4.75;;;5.40;1.00;;;;;;5069477;28;20280;-81
2021/04/16 04:09:42;;;;;;;6.40;2.85;;;5.40;1.00;;;;;;5076582;28;20268;-81
2021/04/16 04:12:13;;;;;;;7.70;3.15;;;5.50;1.00;;;;;;5086524;28;20233;-77
2021/04/16 04:14:40;;;;;;;5.57;2.55;;;5.40;1.00;;;;;;5080136;28;20248;-78
2021/04/16 04:17:10;;;;;;;7.00;4.50;;;5.40;1.00;;;;;;5077715;28;20229;-79
2021/04/16 04:19:37;;;;;;;5.05;2.30;;;5.40;1.00;;;;;;5072679;28;20221;-78
2021/04/16 04:22:04;;;;;;;4.43;2.05;;;5.40;1.00;;;;;;5086298;28;20365;-77
2021/04/16 04:24:31;;;;;;;4.43;3.00;;;5.40;1.00;;;;;;5079547;28;21021;-83
2021/04/16 04:26:58;;;;;;;5.28;3.40;;;5.40;1.00;;;;;;5068193;28;20244;-80
2021/04/16 04:29:26;;;;;;;5.30;3.00;;;5.50;1.00;;;;;;5092834;28;20229;-82
2021/04/16 04:31:54;;;;;;;6.53;3.40;;;5.50;1.00;;;;;;5066758;28;20252;-83
2021/04/16 04:34:22;;;;;;;4.07;3.38;;;5.50;1.00;;;;;;5067875;28;20232;-80
2021/04/16 04:36:52;;;;;;;6.80;2.55;;;5.60;1.00;;;;;;5054860;28;20790;-78
2021/04/16 04:39:22;;;;;;;7.10;2.95;;;5.60;1.00;;;;;;5066877;28;20220;-78
2021/04/16 04:41:58;;;;;;;6.38;2.38;;;5.60;1.00;;;;;;5058320;28;20225;-77
2021/04/16 04:44:24;;;;;;;6.95;4.05;;;5.60;1.00;;;;;;5060347;28;20252;-80
2021/04/16 04:46:51;;;;;;;6.85;2.97;;;5.70;1.00;;;;;;5060390;28;20683;-78
2021/04/16 04:49:23;;;;;;;6.15;3.13;;;5.60;1.00;;;;;;5069631;28;20224;-79
2021/04/16 04:52:06;;;;;;;6.53;2.42;;;5.60;1.00;;;;;;5057805;28;20340;-78
2021/04/16 04:54:34;;;;;;;8.88;2.75;;;5.70;1.00;;;;;;5066647;28;20240;-80
2021/04/16 04:57:00;;;;;;;8.32;3.05;;;5.70;1.00;;;;;;5063315;28;20941;-77
2021/04/16 04:59:27;;;;;;;6.68;3.65;;;5.80;1.00;;;;;;5062492;28;20564;-79
2021/04/16 05:01:54;;;;;;;5.70;3.03;;;5.80;1.00;;;;;;5059431;28;20284;-78
2021/04/16 05:04:24;;;;;;;3.50;2.20;;;5.80;1.00;;;;;;5061380;28;20224;-81
2021/04/16 05:06:51;;;;;;;4.13;2.38;;;5.80;1.00;;;;;;5051186;28;20321;-78
2021/04/16 05:09:22;;;;;;;3.47;2.55;;;5.80;1.00;;;;;;5068035;28;20682;-81
2021/04/16 05:11:49;;;;;;;11.68;4.72;;;5.80;1.00;;;;;;5058359;28;20224;-77
2021/04/16 05:14:16;;;;;;;6.28;3.10;;;5.80;1.00;;;;;;5055247;28;21101;-79
2021/04/16 05:16:44;;;;;;;3.90;2.92;;;5.80;1.00;;;;;;5054809;28;20360;-77
2021/04/16 05:19:18;;;;;;;5.65;2.67;;;5.80;1.00;;;;;;5060876;28;20220;-83
2021/04/16 05:21:50;;;;;;;9.40;3.25;;;5.90;1.00;;;;;;5065680;28;20309;-83
2021/04/16 05:24:17;;;;;;;4.75;2.95;;;5.90;1.00;;;;;;5082278;28;20221;-81
2021/04/16 05:26:44;;;;;;;5.35;1.95;;;5.90;1.00;;;;;;5068155;28;20239;-80
2021/04/16 05:29:10;;;;;;;7.47;2.85;;;6.00;1.00;;;;;;5066358;28;20248;-79
2021/04/16 05:34:46;;;;;;;9.18;5.25;;;6.10;1.00;;;;;;5425581;22;20232;-81
2021/04/16 05:37:15;;;;;;;4.72;2.50;;;6.10;1.00;;;;;;5093257;28;20263;-82
2021/04/16 05:39:41;;;;;;;9.85;3.28;;;6.10;1.00;;;;;;5091068;28;20220;-78
2021/04/16 05:42:09;;;;;;;8.82;3.63;;;6.20;1.00;;;;;;5084250;28;20240;-77
2021/04/16 05:44:43;;;;;;;10.30;6.10;;;6.30;1.00;;;;;;5089299;28;20288;-76
2021/04/16 05:47:11;;;;;;;7.25;2.10;;;6.40;1.00;;;;;;5076714;28;20435;-77
2021/04/16 05:49:41;;;;;;;11.45;6.35;;;6.40;1.00;;;;;;5077110;28;20221;-76
2021/04/16 05:52:12;;;;;;;3.75;2.20;;;6.50;1.00;;;;;;5072160;28;20363;-78
2021/04/16 05:54:50;;;;;;;7.85;3.15;;;6.50;1.00;;;;;;5071060;28;20229;-77
2021/04/16 05:57:22;;;;;;;8.30;3.30;;;6.60;1.00;;;;;;5069698;28;20279;-79
2021/04/16 05:59:51;;;;;;;10.68;3.00;;;6.60;1.00;;;;;;5063136;28;20225;-77
2021/04/16 06:02:23;;;;;;;5.82;3.80;;;6.70;1.00;;;;;;5090768;28;20252;-78
2021/04/16 06:04:50;;;;;;;7.85;2.70;;;6.70;1.00;;;;;;5069287;28;20248;-80
2021/04/16 06:07:16;;;;;;;6.57;2.60;;;6.70;1.00;;;;;;5085675;28;20229;-77
2021/04/16 06:09:46;;;;;;;5.43;2.40;;;6.70;1.00;;;;;;5072872;28;20236;-80
2021/04/16 06:12:13;;;;;;;6.53;2.45;;;6.80;1.00;;;;;;5073473;28;20231;-78
2021/04/16 06:14:43;;;;;;;3.58;1.90;;;6.80;1.00;;;;;;5081056;28;20233;-77
2021/04/16 06:17:11;;;;;;;5.90;2.70;;;6.90;1.00;;;;;;5076241;28;20228;-82
2021/04/16 06:25:09;;;;;;;3.83;2.35;;;7.20;1.00;;;;;;5080759;28;20270;-83
2021/04/16 06:27:38;;;;;;;3.78;2.72;;;7.20;1.00;;;;;;5086336;27;20228;-82
2021/04/16 06:30:19;;;;;;;4.07;2.72;;;7.40;1.00;;;;;;5086994;28;20225;-82
2021/04/16 06:32:59;;;;;;;9.68;2.90;;;7.40;1.00;;;;;;5085541;28;20230;-82
2021/04/16 06:35:32;;;;;;;9.07;2.90;;;7.50;1.00;;;;;;5082364;28;20237;-83
2021/04/16 06:37:58;;;;;;;2.78;2.00;;;7.60;1.00;;;;;;5091096;28;20257;-79
2021/04/16 06:40:26;;;;;;;4.05;2.67;;;7.70;1.00;;;;;;5081038;28;20237;-81
2021/04/16 06:42:53;;;;;;;5.22;2.45;;;7.80;1.00;;;;;;5073048;28;20752;-78
2021/04/16 06:45:25;;;;;;;3.63;2.58;;;7.90;1.00;;;;;;5068078;28;20304;-78
2021/04/16 06:47:56;;;;;;;5.47;3.53;;;8.00;1.00;;;;;;5079608;28;20216;-78
2021/04/16 06:50:29;;;;;;;5.03;3.22;;;8.20;1.00;;;;;;5077743;27;20353;-80
2021/04/16 06:53:02;;;;;;;8.25;2.65;;;8.30;1.00;;;;;;5070420;28;20237;-77
2021/04/16 06:55:32;;;;;;;17.15;15.38;;;8.40;1.00;;;;;;5069155;28;20241;-81
2021/04/16 06:58:05;;;;;;;6.80;2.95;;;8.40;1.00;;;;;;5063360;28;20228;-81
2021/04/16 07:00:42;;;;;;;3.75;2.85;;;8.50;1.00;;;;;;5063971;28;20252;-80
2021/04/16 07:03:17;;;;;;;5.40;2.60;;;8.70;1.00;;;;;;5061396;28;20231;-83
2021/04/16 07:05:48;;;;;;;3.53;2.45;;;8.90;1.00;;;;;;5062414;28;21462;-78
2021/04/16 07:08:24;;;;;;;4.00;2.40;;;9.10;1.00;;;;;;5067413;28;20229;-83
2021/04/16 07:10:53;;;;;;;3.40;2.00;;;9.20;1.00;;;;;;5067398;28;21077;-82
2021/04/16 07:13:33;;;;;;;6.45;2.60;;;9.40;1.00;;;;;;5067632;28;20214;-82
2021/04/16 07:15:59;;;;;;;4.00;1.90;;;9.50;1.00;;;;;;5066861;28;20303;-81
2021/04/16 07:18:31;;;;;;;6.53;2.97;;;9.70;1.00;;;;;;5074492;28;20246;-81
2021/04/16 07:20:58;;;;;;;3.50;1.98;;;9.70;1.00;;;;;;5080480;28;20273;-78
2021/04/16 07:23:25;;;;;;;3.53;2.38;;;9.70;1.00;;;;;;5067141;28;20221;-79
2021/04/16 07:26:21;;;;;;;5.20;2.70;;;9.70;1.00;;;;;;5059372;28;20221;-82
2021/04/16 07:28:52;;;;;;;2.88;2.22;;;9.80;1.00;;;;;;5061336;28;20225;-82
2021/04/16 07:31:42;;;;;;;17.88;16.27;;;9.70;1.00;;;;;;5057860;28;20229;-82
2021/04/16 07:34:46;;;;;;;5.07;3.15;;;9.60;1.00;;;;;;5082366;28;20237;-82
2021/04/16 07:37:22;;;;;;;7.70;3.00;;;9.60;1.00;;;;;;5069535;28;20235;-79
2021/04/16 07:40:00;;;;;;;4.18;2.83;;;9.60;1.00;;;;;;5059686;28;20222;-79
2021/04/16 07:42:42;;;;;;;8.95;3.33;;;9.50;1.00;;;;;;5061929;28;20216;-78
2021/04/16 07:45:36;;;;;;;6.57;3.10;;;9.60;1.00;;;;;;5069281;27;20607;-76
2021/04/16 07:48:29;;;;;;;9.93;3.47;;;9.80;1.00;;;;;;5078857;27;20236;-80
2021/04/16 07:51:00;;;;;;;6.10;3.95;;;9.90;1.00;;;;;;5069683;28;20248;-82
2021/04/16 07:53:33;;;;;;;5.10;2.70;;;10.00;1.00;;;;;;5091344;28;20279;-77
2021/04/16 07:56:19;;;;;;;6.35;2.22;;;10.10;1.00;;;;;;5069522;28;20679;-77
2021/04/16 07:58:52;;;;;;;5.38;2.30;;;10.10;1.00;;;;;;5077419;28;20764;-82
2021/04/16 08:01:31;;;;;;;7.30;2.88;;;10.20;1.00;;;;;;5073910;28;21116;-82
2021/04/16 08:04:05;;;;;;;3.35;2.35;;;10.50;1.00;;;;;;5096212;28;20296;-82
2021/04/16 08:06:38;;;;;;;5.20;3.17;;;10.50;1.00;;;;;;5074629;28;20304;-83
2021/04/16 08:09:12;;;;;;;5.38;2.10;;;10.70;1.00;;;;;;5067309;28;20226;-78
2021/04/16 08:11:38;;;;;;;4.30;2.03;;;10.70;1.00;;;;;;5066981;28;20212;-80
2021/04/16 08:14:10;;;;;;;5.87;2.77;;;10.60;1.00;;;;;;5063256;28;20488;-79
2021/04/16 08:16:40;;;;;;;6.25;3.05;;;10.50;1.00;;;;;;5062826;28;20447;-80
2021/04/16 08:19:26;;;;;;;5.55;3.33;;;10.40;1.00;;;;;;5058980;28;20225;-78
2021/04/16 08:22:00;;;;;;;3.80;2.00;;;10.30;1.00;;;;;;5062356;28;21403;-80
2021/04/16 08:24:34;;;;;;;8.15;3.38;;;10.30;1.00;;;;;;5062261;28;20229;-80
2021/04/16 08:27:06;;;;;;;7.43;2.60;;;10.30;1.00;;;;;;5080975;28;20229;-82
2021/04/16 08:29:37;;;;;;;4.15;2.58;;;10.30;1.00;;;;;;5063547;28;20222;-77
2021/04/16 08:32:10;;;;;;;5.75;2.85;;;10.40;1.00;;;;;;5055961;28;20232;-78
2021/04/16 08:34:41;;;;;;;6.70;3.37;;;10.50;1.00;;;;;;5064810;28;20261;-79
2021/04/16 08:37:11;;;;;;;4.88;2.33;;;10.80;1.00;;;;;;5057745;28;20445;-80
2021/04/16 08:39:42;;;;;;;12.15;4.70;;;11.00;1.00;;;;;;5059518;28;20232;-79
2021/04/16 08:42:12;;;;;;;4.70;2.05;;;11.20;1.00;;;;;;5062838;28;20217;-77
2021/04/16 08:44:42;;;;;;;13.67;3.83;;;11.30;1.00;;;;;;5067904;28;20221;-81
2021/04/16 08:47:23;;;;;;;7.30;2.40;;;11.40;1.00;;;;;;5062395;28;20468;-80
2021/04/16 08:49:52;;;;;;;3.20;2.20;;;11.30;1.00;;;;;;5077396;28;20428;-81
2021/04/16 08:52:25;;;;;;;4.87;2.53;;;11.40;1.00;;;;;;5077893;28;20432;-81
2021/04/16 08:54:54;;;;;;;3.60;2.30;;;11.40;1.00;;;;;;5076981;28;20452;-80
2021/04/16 08:57:24;;;;;;;5.10;2.90;;;11.40;1.00;;;;;;5075750;28;20444;-76
2021/04/16 08:59:58;;;;;;;11.53;3.97;;;11.50;1.00;;;;;;5054689;28;20443;-77
2021/04/16 09:02:29;;;;;;;5.97;3.00;;;11.60;1.00;;;;;;5059696;28;20464;-76
2021/04/16 09:05:02;;;;;;;3.90;3.30;;;11.60;1.00;;;;;;5066485;28;20454;-80
2021/04/16 09:07:36;;;;;;;3.40;1.90;;;11.90;1.00;;;;;;5065877;28;20456;-76
2021/04/16 09:10:49;;;;;;;7.07;3.03;;;12.00;1.00;;;;;;5056288;28;20423;-79
2021/04/16 09:13:56;;;;;;;4.10;2.20;;;12.20;1.00;;;;;;5078952;28;20463;-80
2021/04/16 09:16:36;;;;;;;5.60;2.27;;;12.60;1.00;;;;;;5065556;28;20586;-76
2021/04/16 09:19:41;;;;;;;10.43;3.63;;;13.00;1.00;;;;;;5064331;28;20434;-76
2021/04/16 09:22:43;;;;;;;4.53;2.57;;;13.40;1.00;;;;;;5058144;28;20436;-78
2021/04/16 09:25:43;;;;;;;4.33;2.17;;;13.70;1.00;;;;;;5077352;28;20517;-80
2021/04/16 09:28:42;;;;;;;7.70;3.03;;;14.00;1.00;;;;;;5074148;28;20452;-77
2021/04/16 09:31:41;;;;;;;4.73;4.33;;;14.00;1.00;;;;;;5065205;28;20447;-76
2021/04/16 09:34:19;;;;;;;5.57;2.70;;;13.90;1.00;;;;;;5063834;28;20444;-75
2021/04/16 09:36:48;;;;;;;4.73;2.00;;;13.80;1.00;;;;;;5063089;28;21228;-76
2021/04/16 09:39:33;;;;;;;2.73;2.00;;;13.90;1.00;;;;;;5069609;28;20467;-76
2021/04/16 09:41:59;;;;;;;4.60;2.70;;;13.80;1.00;;;;;;5066505;28;20399;-77
2021/04/16 09:44:54;;;;;;;3.93;2.30;;;13.80;1.00;;;;;;5073078;28;20410;-76
2021/04/16 09:47:50;;;;;;;5.97;3.07;;;13.90;1.00;;;;;;5080198;28;20408;-76
2021/04/16 09:50:36;;;;;;;4.50;2.57;;;13.90;1.00;;;;;;5074708;28;20460;-76
2021/04/16 09:53:19;;;;;;;4.30;2.17;;;13.90;1.00;;;;;;5077687;28;20440;-75
2021/04/16 09:56:10;;;;;;;4.87;2.43;;;13.80;1.00;;;;;;5077806;27;20460;-75
2021/04/16 09:59:28;;;;;;;6.43;4.00;;;13.80;1.00;;;;;;5070774;28;20467;-76
2021/04/16 10:02:31;;;;;;;5.70;3.00;;;13.80;1.00;;;;;;5062248;28;20515;-77
2021/04/16 10:05:02;;;;;;;5.90;2.57;;;13.70;1.00;;;;;;5056704;28;20441;-73
2021/04/16 10:07:39;;;;;;;5.67;2.83;;;13.70;1.00;;;;;;5051221;28;20548;-77
2021/04/16 10:10:16;;;;;;;6.63;2.57;;;13.70;1.00;;;;;;5056000;28;20471;-79
2021/04/16 10:12:42;;;;;;;4.17;3.17;;;13.60;1.00;;;;;;5059900;28;20494;-79
2021/04/16 10:15:22;;;;;;;9.20;6.53;;;13.70;1.00;;;;;;5046637;28;20487;-76
2021/04/16 10:18:00;;;;;;;3.23;2.50;;;13.70;1.00;;;;;;5057515;28;20533;-75
2021/04/16 10:20:39;;;;;;;6.07;3.10;;;14.00;1.00;;;;;;5046972;28;20435;-76
2021/04/16 10:23:22;;;;;;;9.00;4.20;;;14.30;1.00;;;;;;5051379;28;20534;-79
2021/04/16 12:39:33;;;;;;;4.23;2.43;;;27.70;1.00;;;;;;5060185;28;20426;-77
2021/04/16 12:41:59;;;;;;;3.67;1.70;;;29.10;1.00;;;;;;5056154;28;20513;-76
2021/04/16 12:44:33;;;;;;;4.70;2.03;;;29.30;1.00;;;;;;5063834;28;21303;-76
2021/04/16 12:47:03;;;;;;;2.33;1.70;;;29.00;1.00;;;;;;5064071;28;20450;-79
2021/04/16 12:49:30;;;;;;;3.17;1.80;;;28.10;1.00;;;;;;5069769;28;20469;-78
2021/04/16 12:51:57;;;;;;;6.57;2.37;;;26.70;1.00;;;;;;5072575;28;20486;-80
2021/04/16 12:54:29;;;;;;;2.93;2.03;;;25.50;1.00;;;;;;5077164;28;20484;-78
2021/04/16 12:56:58;;;;;;;2.70;1.70;;;24.90;1.00;;;;;;5065911;28;20450;-76
2021/04/16 12:59:24;;;;;;;2.70;1.77;;;24.80;1.00;;;;;;5056682;28;20981;-78
2021/04/16 13:01:53;;;;;;;4.43;2.50;;;24.50;1.00;;;;;;5065708;28;20948;-78
2021/04/16 13:04:22;;;;;;;4.60;1.93;;;24.10;1.00;;;;;;5069697;28;20979;-78
2021/04/16 13:06:59;;;;;;;2.47;1.90;;;23.00;1.00;;;;;;5067321;28;21286;-80
2021/04/16 13:09:26;;;;;;;5.83;2.30;;;22.10;1.00;;;;;;5061242;28;20547;-79
2021/04/16 13:11:53;;;;;;;3.40;1.80;;;21.40;1.00;;;;;;5065744;28;20404;-78
2021/04/16 13:14:20;;;;;;;1.60;1.50;;;21.30;1.00;;;;;;5068676;28;20430;-79
2021/04/16 13:16:47;;;;;;;3.30;2.60;;;21.00;1.00;;;;;;5067515;28;20446;-77
2021/04/16 13:19:22;;;;;;;4.13;1.90;;;21.00;1.00;;;;;;5080865;28;20508;-83
2021/04/16 13:21:49;;;;;;;3.97;1.93;;;21.50;1.00;;;;;;5077606;28;21438;-78
2021/04/16 13:24:15;;;;;;;7.40;5.00;;;22.40;1.00;;;;;;5072020;28;20774;-79
2021/04/16 13:26:42;;;;;;;3.90;2.43;;;23.60;1.00;;;;;;5082288;28;20437;-80
2021/04/16 13:29:08;;;;;;;7.40;2.30;;;24.50;1.00;;;;;;5089253;27;20449;-77
2021/04/16 13:31:37;;;;;;;4.70;2.10;;;24.90;1.00;;;;;;5089715;28;20429;-79
2021/04/16 13:34:04;;;;;;;4.27;2.90;;;24.20;1.00;;;;;;5079284;28;20532;-78
2021/04/16 13:36:33;;;;;;;6.40;2.20;;;22.80;1.00;;;;;;5071128;28;21154;-78
2021/04/16 13:39:01;;;;;;;3.77;3.10;;;22.00;1.00;;;;;;5070368;28;20473;-77
2021/04/16 13:41:30;;;;;;;2.50;1.93;;;22.30;1.00;;;;;;5071605;28;21171;-83
2021/04/16 13:43:58;;;;;;;8.53;2.67;;;22.80;1.00;;;;;;5083208;28;20443;-80
2021/04/16 13:46:26;;;;;;;5.73;1.70;;;23.50;1.00;;;;;;5078054;28;20451;-80
2021/04/16 13:48:55;;;;;;;4.40;2.33;;;24.50;1.00;;;;;;5069353;28;20551;-82
2021/04/16 13:51:25;;;;;;;2.63;1.70;;;25.90;1.00;;;;;;5071810;28;20448;-81
2021/04/16 13:53:52;;;;;;;2.93;1.70;;;26.90;1.00;;;;;;5074827;28;20458;-79
2021/04/16 13:56:20;;;;;;;6.67;2.17;;;27.60;1.00;;;;;;5067755;28;20445;-80
2021/04/16 13:58:46;;;;;;;5.30;2.33;;;28.30;1.00;;;;;;5069349;28;20513;-79
2021/04/16 14:01:14;;;;;;;7.50;2.10;;;28.90;1.00;;;;;;5069280;28;20478;-81
2021/04/16 14:03:43;;;;;;;4.67;2.10;;;29.70;1.00;;;;;;5071428;28;20418;-80
2021/04/16 14:06:14;;;;;;;2.87;1.90;;;30.70;1.00;;;;;;5061069;28;20432;-81
2021/04/16 14:08:45;;;;;;;3.53;2.20;;;29.80;1.00;;;;;;5085547;28;20474;-80
2021/04/16 14:11:11;;;;;;;2.80;2.43;;;28.30;1.00;;;;;;5069435;28;20582;-78
2021/04/16 14:13:37;;;;;;;2.70;2.40;;;26.90;1.00;;;;;;5071331;28;20443;-82
2021/04/16 14:16:07;;;;;;;3.17;2.87;;;25.80;1.00;;;;;;5074346;28;20507;-82
2021/04/16 14:18:38;;;;;;;3.20;2.67;;;24.30;1.00;;;;;;5073316;28;20456;-82
2021/04/16 14:21:05;;;;;;;4.13;2.37;;;22.90;1.00;;;;;;5075298;28;21509;-82
2021/04/16 14:23:39;;;;;;;3.10;2.43;;;21.90;1.00;;;;;;5090750;28;20477;-82
2021/04/16 14:26:08;;;;;;;4.50;2.83;;;21.50;1.00;;;;;;5093105;27;20440;-81
2021/04/16 14:28:35;;;;;;;4.13;2.23;;;21.50;1.00;;;;;;5082010;27;20542;-80
2021/04/16 14:31:01;;;;;;;3.30;1.90;;;21.70;1.00;;;;;;5074505;28;20503;-83
2021/04/16 14:33:31;;;;;;;3.90;2.13;;;21.10;1.00;;;;;;5074979;28;20441;-81
2021/04/16 14:35:59;;;;;;;4.10;2.57;;;20.20;1.00;;;;;;5075135;28;20442;-80
2021/04/16 14:38:30;;;;;;;3.10;2.13;;;19.80;1.00;;;;;;5077071;28;20487;-81
2021/04/16 14:40:58;;;;;;;4.90;2.67;;;19.30;1.00;;;;;;5066444;28;20530;-80
2021/04/16 14:43:25;;;;;;;5.23;3.33;;;18.90;1.00;;;;;;5080557;28;20478;-81
2021/04/16 14:45:53;;;;;;;4.90;2.23;;;18.80;1.00;;;;;;5075766;28;20475;-79
2021/04/16 14:48:22;;;;;;;3.30;2.20;;;18.80;1.00;;;;;;5074655;28;20467;-77
2021/04/16 14:50:49;;;;;;;3.27;2.40;;;18.70;1.00;;;;;;5074548;28;20415;-77
2021/04/16 14:53:21;;;;;;;3.63;1.93;;;18.60;1.00;;;;;;5072346;28;20548;-78
2021/04/16 14:55:48;;;;;;;3.73;2.97;;;18.50;1.00;;;;;;5072278;28;20459;-77
2021/04/16 14:58:28;;;;;;;4.17;2.97;;;18.50;1.00;;;;;;5073942;28;20508;-78
2021/04/16 15:00:55;;;;;;;6.90;3.10;;;18.50;1.00;;;;;;5081170;28;20447;-77
2021/04/16 15:03:21;;;;;;;3.80;2.40;;;18.60;1.00;;;;;;5085959;28;20400;-77
2021/04/16 15:05:47;;;;;;;4.37;2.43;;;18.60;1.00;;;;;;5083918;27;20396;-77
2021/04/16 15:08:17;;;;;;;5.27;2.30;;;18.60;1.00;;;;;;5092390;27;20454;-78
2021/04/16 15:10:49;;;;;;;3.50;2.33;;;18.50;1.00;;;;;;5092413;28;20451;-78
2021/04/16 15:13:21;;;;;;;3.33;2.07;;;18.20;1.00;;;;;;5094855;27;20448;-78
2021/04/16 15:15:47;;;;;;;2.33;1.90;;;18.00;1.00;;;;;;5089394;27;20459;-78
2021/04/16 15:18:15;;;;;;;4.03;2.30;;;17.70;1.00;;;;;;5096367;27;20477;-78
2021/04/16 15:20:43;;;;;;;5.10;2.90;;;17.60;1.00;;;;;;5092824;27;20390;-78
2021/04/16 15:23:11;;;;;;;2.97;2.30;;;17.50;1.00;;;;;;5091237;27;20409;-77
2021/04/16 15:25:38;;;;;;;8.90;2.80;;;17.40;1.00;;;;;;5087035;27;20405;-78
2021/04/16 15:28:09;;;;;;;4.17;1.90;;;17.40;1.00;;;;;;5089829;27;20437;-77
2021/04/16 15:30:38;;;;;;;3.47;1.60;;;17.40;1.00;;;;;;5086261;27;22489;-79
2021/04/16 15:33:13;;;;;;;3.50;2.20;;;17.30;1.00;;;;;;5080167;28;21064;-78
2021/04/16 15:46:46;;;;;;;6.07;2.63;;;15.50;1.00;;;;;;5080102;28;20476;-78
2021/04/16 15:49:14;;;;;;;4.60;2.30;;;15.30;1.00;;;;;;5070688;28;20458;-78
2021/04/16 15:51:41;;;;;;;5.90;2.17;;;14.90;1.00;;;;;;5077112;28;20468;-80
2021/04/16 15:54:08;;;;;;;8.00;3.33;;;14.80;1.00;;;;;;5078671;28;20451;-80
2021/04/16 15:56:36;;;;;;;3.97;2.60;;;14.70;1.00;;;;;;5079838;28;20482;-79
2021/04/16 15:59:08;;;;;;;2.60;1.80;;;14.50;1.00;;;;;;5079937;28;20423;-79